sensor_id;sensor_type;location;lat;lon;timestamp;temperature;humidity
25320;DHT22;13256;49.012;8.610;2022-10-10T00:01:29;9.80;99.90
25320;DHT22;13256;49.012;8.610;2022-10-10T00:04:01;9.70;99.90
25320;DHT22;13256;49.012;8.610;2022-10-10T00:06:28;9.60;99.90
25320;DHT22;13256;49.012;8.610;2022-10-10T00:09:20;9.70;99.90
25320;DHT22;13256;49.012;8.610;2022-10-10T00:11:53;9.70;99.90
25320;DHT22;13256;49.012;8.610;2022-10-10T00:14:22;9.60;99.90
25320;DHT22;13256;49.012;8.610;2022-10-10T00:16:57;9.60;99.90
25320;DHT22;13256;49.012;8.610;2022-10-10T00:19:26;9.50;99.90
25320;DHT22;13256;49.012;8.610;2022-10-10T00:21:57;9.60;99.90
25320;DHT22;13256;49.012;8.610;2022-10-10T00:24:24;9.60;99.90
25320;DHT22;13256;49.012;8.610;2022-10-10T00:26:54;9.60;99.90
25320;DHT22;13256;49.012;8.610;2022-10-10T00:29:20;9.60;99.90
25320;DHT22;13256;49.012;8.610;2022-10-10T00:32:13;9.60;99.90
25320;DHT22;13256;49.012;8.610;2022-10-10T00:34:40;9.60;99.90
25320;DHT22;13256;49.012;8.610;2022-10-10T00:37:13;9.50;99.90
25320;DHT22;13256;49.012;8.610;2022-10-10T00:39:44;9.60;99.90
25320;DHT22;13256;49.012;8.610;2022-10-10T00:42:12;9.50;99.90
25320;DHT22;13256;49.012;8.610;2022-10-10T00:51:25;9.70;99.90
25320;DHT22;13256;49.012;8.610;2022-10-10T01:17:32;9.90;99.90
25320;DHT22;13256;49.012;8.610;2022-10-10T01:28:59;9.80;99.90
25320;DHT22;13256;49.012;8.610;2022-10-10T01:31:38;9.80;99.90
25320;DHT22;13256;49.012;8.610;2022-10-10T01:34:23;9.80;99.90
25320;DHT22;13256;49.012;8.610;2022-10-10T01:39:55;9.70;99.90
25320;DHT22;13256;49.012;8.610;2022-10-10T01:42:34;9.70;99.90
25320;DHT22;13256;49.012;8.610;2022-10-10T01:45:08;9.70;99.90
25320;DHT22;13256;49.012;8.610;2022-10-10T01:47:38;9.60;99.90
25320;DHT22;13256;49.012;8.610;2022-10-10T01:50:08;9.60;99.90
25320;DHT22;13256;49.012;8.610;2022-10-10T01:53:08;9.60;99.90
25320;DHT22;13256;49.012;8.610;2022-10-10T02:04:39;9.70;99.90
25320;DHT22;13256;49.012;8.610;2022-10-10T02:10:18;9.70;99.90
25320;DHT22;13256;49.012;8.610;2022-10-10T02:12:49;9.70;99.90
25320;DHT22;13256;49.012;8.610;2022-10-10T02:15:24;9.70;99.90
25320;DHT22;13256;49.012;8.610;2022-10-10T02:17:58;9.70;99.90
25320;DHT22;13256;49.012;8.610;2022-10-10T02:20:29;9.70;99.90
25320;DHT22;13256;49.012;8.610;2022-10-10T02:22:58;9.70;99.90
25320;DHT22;13256;49.012;8.610;2022-10-10T02:25:28;9.80;99.90
25320;DHT22;13256;49.012;8.610;2022-10-10T02:31:34;9.80;99.90
25320;DHT22;13256;49.012;8.610;2022-10-10T02:34:11;9.80;99.90
25320;DHT22;13256;49.012;8.610;2022-10-10T02:36:43;9.70;99.90
25320;DHT22;13256;49.012;8.610;2022-10-10T02:39:13;9.60;99.90
25320;DHT22;13256;49.012;8.610;2022-10-10T02:41:47;9.60;99.90
25320;DHT22;13256;49.012;8.610;2022-10-10T02:44:23;9.50;99.90
25320;DHT22;13256;49.012;8.610;2022-10-10T02:46:50;9.40;99.90
25320;DHT22;13256;49.012;8.610;2022-10-10T02:49:32;9.40;99.90
25320;DHT22;13256;49.012;8.610;2022-10-10T02:52:03;9.30;99.90
25320;DHT22;13256;49.012;8.610;2022-10-10T02:54:33;9.40;99.90
25320;DHT22;13256;49.012;8.610;2022-10-10T02:57:05;9.40;99.90
25320;DHT22;13256;49.012;8.610;2022-10-10T02:59:33;9.40;99.90
25320;DHT22;13256;49.012;8.610;2022-10-10T03:01:59;9.40;99.90
25320;DHT22;13256;49.012;8.610;2022-10-10T03:04:28;9.40;99.90
25320;DHT22;13256;49.012;8.610;2022-10-10T03:07:02;9.40;99.90
25320;DHT22;13256;49.012;8.610;2022-10-10T03:09:29;9.40;99.90
25320;DHT22;13256;49.012;8.610;2022-10-10T03:11:56;9.40;99.90
25320;DHT22;13256;49.012;8.610;2022-10-10T03:14:25;9.40;99.90
25320;DHT22;13256;49.012;8.610;2022-10-10T03:16:52;9.40;99.90
25320;DHT22;13256;49.012;8.610;2022-10-10T03:19:19;9.30;99.90
25320;DHT22;13256;49.012;8.610;2022-10-10T03:21:51;9.30;99.90
25320;DHT22;13256;49.012;8.610;2022-10-10T03:24:21;9.30;99.90
25320;DHT22;13256;49.012;8.610;2022-10-10T03:27:18;9.20;99.90
25320;DHT22;13256;49.012;8.610;2022-10-10T03:29:44;9.20;99.90
25320;DHT22;13256;49.012;8.610;2022-10-10T03:32:22;9.20;99.90
25320;DHT22;13256;49.012;8.610;2022-10-10T03:34:51;9.00;99.90
25320;DHT22;13256;49.012;8.610;2022-10-10T03:37:18;9.00;99.90
25320;DHT22;13256;49.012;8.610;2022-10-10T03:39:46;8.90;99.90
25320;DHT22;13256;49.012;8.610;2022-10-10T03:42:16;8.90;99.90
25320;DHT22;13256;49.012;8.610;2022-10-10T03:44:43;8.80;99.90
25320;DHT22;13256;49.012;8.610;2022-10-10T03:47:09;8.80;99.90
25320;DHT22;13256;49.012;8.610;2022-10-10T03:49:37;8.80;99.90
25320;DHT22;13256;49.012;8.610;2022-10-10T03:52:08;8.80;99.90
25320;DHT22;13256;49.012;8.610;2022-10-10T03:54:35;8.90;99.90
25320;DHT22;13256;49.012;8.610;2022-10-10T03:57:05;8.90;99.90
25320;DHT22;13256;49.012;8.610;2022-10-10T03:59:34;8.90;99.90
25320;DHT22;13256;49.012;8.610;2022-10-10T04:02:11;9.00;99.90
25320;DHT22;13256;49.012;8.610;2022-10-10T04:04:43;9.00;99.90
25320;DHT22;13256;49.012;8.610;2022-10-10T04:07:09;9.00;99.90
25320;DHT22;13256;49.012;8.610;2022-10-10T04:09:36;9.00;99.90
25320;DHT22;13256;49.012;8.610;2022-10-10T04:12:03;9.10;99.90
25320;DHT22;13256;49.012;8.610;2022-10-10T04:14:33;9.10;99.90
25320;DHT22;13256;49.012;8.610;2022-10-10T04:17:00;9.20;99.90
25320;DHT22;13256;49.012;8.610;2022-10-10T04:19:32;9.10;99.90
25320;DHT22;13256;49.012;8.610;2022-10-10T04:22:01;9.10;99.90
25320;DHT22;13256;49.012;8.610;2022-10-10T04:24:28;9.10;99.90
25320;DHT22;13256;49.012;8.610;2022-10-10T04:26:58;9.10;99.90
25320;DHT22;13256;49.012;8.610;2022-10-10T04:29:41;9.10;99.90
25320;DHT22;13256;49.012;8.610;2022-10-10T04:32:10;9.10;99.90
25320;DHT22;13256;49.012;8.610;2022-10-10T04:34:37;9.10;99.90
25320;DHT22;13256;49.012;8.610;2022-10-10T04:37:07;9.10;99.90
25320;DHT22;13256;49.012;8.610;2022-10-10T04:39:35;9.00;99.90
25320;DHT22;13256;49.012;8.610;2022-10-10T04:42:05;9.00;99.90
25320;DHT22;13256;49.012;8.610;2022-10-10T04:44:32;8.90;99.90
25320;DHT22;13256;49.012;8.610;2022-10-10T04:47:06;8.90;99.90
25320;DHT22;13256;49.012;8.610;2022-10-10T04:49:59;8.80;99.90
25320;DHT22;13256;49.012;8.610;2022-10-10T04:52:34;8.90;99.90
25320;DHT22;13256;49.012;8.610;2022-10-10T04:55:01;8.90;99.90
25320;DHT22;13256;49.012;8.610;2022-10-10T04:57:47;8.90;99.90
25320;DHT22;13256;49.012;8.610;2022-10-10T05:00:18;8.90;99.90
25320;DHT22;13256;49.012;8.610;2022-10-10T05:02:45;8.90;99.90
25320;DHT22;13256;49.012;8.610;2022-10-10T05:05:15;8.90;99.90
25320;DHT22;13256;49.012;8.610;2022-10-10T05:07:50;8.90;99.90
25320;DHT22;13256;49.012;8.610;2022-10-10T05:10:23;8.90;99.90
25320;DHT22;13256;49.012;8.610;2022-10-10T05:12:50;8.90;99.90
25320;DHT22;13256;49.012;8.610;2022-10-10T05:15:19;8.80;99.90
25320;DHT22;13256;49.012;8.610;2022-10-10T05:17:47;8.80;99.90
25320;DHT22;13256;49.012;8.610;2022-10-10T05:20:17;8.70;99.90
25320;DHT22;13256;49.012;8.610;2022-10-10T05:22:44;8.70;99.90
25320;DHT22;13256;49.012;8.610;2022-10-10T05:25:15;8.70;99.90
25320;DHT22;13256;49.012;8.610;2022-10-10T05:27:44;8.80;99.90
25320;DHT22;13256;49.012;8.610;2022-10-10T05:30:11;8.70;99.90
25320;DHT22;13256;49.012;8.610;2022-10-10T05:32:40;8.80;99.90
25320;DHT22;13256;49.012;8.610;2022-10-10T05:35:08;8.80;99.90
25320;DHT22;13256;49.012;8.610;2022-10-10T05:37:42;8.90;99.90
25320;DHT22;13256;49.012;8.610;2022-10-10T05:40:09;8.90;99.90
25320;DHT22;13256;49.012;8.610;2022-10-10T05:42:39;9.00;99.90
25320;DHT22;13256;49.012;8.610;2022-10-10T05:45:06;9.00;99.90
25320;DHT22;13256;49.012;8.610;2022-10-10T05:53:42;9.10;99.90
25320;DHT22;13256;49.012;8.610;2022-10-10T05:56:11;9.10;99.90
25320;DHT22;13256;49.012;8.610;2022-10-10T05:58:40;9.20;99.90
25320;DHT22;13256;49.012;8.610;2022-10-10T06:01:07;9.20;99.90
25320;DHT22;13256;49.012;8.610;2022-10-10T06:03:36;9.20;99.90
25320;DHT22;13256;49.012;8.610;2022-10-10T06:06:04;9.20;99.90
25320;DHT22;13256;49.012;8.610;2022-10-10T06:11:23;9.20;99.90
25320;DHT22;13256;49.012;8.610;2022-10-10T06:13:57;9.20;99.90
25320;DHT22;13256;49.012;8.610;2022-10-10T06:16:27;9.30;99.90
25320;DHT22;13256;49.012;8.610;2022-10-10T06:18:54;9.30;99.90
25320;DHT22;13256;49.012;8.610;2022-10-10T06:21:29;9.30;99.90
25320;DHT22;13256;49.012;8.610;2022-10-10T06:27:03;9.40;99.90
25320;DHT22;13256;49.012;8.610;2022-10-10T06:29:37;9.40;99.90
25320;DHT22;13256;49.012;8.610;2022-10-10T06:32:04;9.40;99.90
25320;DHT22;13256;49.012;8.610;2022-10-10T06:34:30;9.50;99.90
25320;DHT22;13256;49.012;8.610;2022-10-10T06:51:41;9.70;99.90
25320;DHT22;13256;49.012;8.610;2022-10-10T07:00:24;10.10;99.90
25320;DHT22;13256;49.012;8.610;2022-10-10T07:08:57;10.50;99.90
25320;DHT22;13256;49.012;8.610;2022-10-10T07:11:28;10.50;99.90
25320;DHT22;13256;49.012;8.610;2022-10-10T07:14:04;10.60;99.90
25320;DHT22;13256;49.012;8.610;2022-10-10T07:16:39;10.70;99.90
25320;DHT22;13256;49.012;8.610;2022-10-10T07:19:06;10.70;99.90
25320;DHT22;13256;49.012;8.610;2022-10-10T07:21:33;10.80;99.90
25320;DHT22;13256;49.012;8.610;2022-10-10T07:24:01;10.80;99.90
25320;DHT22;13256;49.012;8.610;2022-10-10T07:26:28;10.90;99.90
25320;DHT22;13256;49.012;8.610;2022-10-10T07:29:06;10.90;99.90
25320;DHT22;13256;49.012;8.610;2022-10-10T07:31:33;10.90;99.90
25320;DHT22;13256;49.012;8.610;2022-10-10T07:34:00;10.90;99.90
25320;DHT22;13256;49.012;8.610;2022-10-10T07:36:28;11.00;99.90
25320;DHT22;13256;49.012;8.610;2022-10-10T07:39:03;11.00;99.90
25320;DHT22;13256;49.012;8.610;2022-10-10T07:41:30;11.00;99.90
25320;DHT22;13256;49.012;8.610;2022-10-10T07:43:56;11.00;99.90
25320;DHT22;13256;49.012;8.610;2022-10-10T07:48:58;11.00;99.90
25320;DHT22;13256;49.012;8.610;2022-10-10T07:54:23;11.10;99.90
25320;DHT22;13256;49.012;8.610;2022-10-10T07:56:52;11.10;99.90
25320;DHT22;13256;49.012;8.610;2022-10-10T07:59:25;11.10;99.90
25320;DHT22;13256;49.012;8.610;2022-10-10T08:04:55;11.20;99.90
25320;DHT22;13256;49.012;8.610;2022-10-10T08:07:23;11.20;99.90
25320;DHT22;13256;49.012;8.610;2022-10-10T08:09:54;11.30;99.90
25320;DHT22;13256;49.012;8.610;2022-10-10T08:15:10;11.30;99.90
25320;DHT22;13256;49.012;8.610;2022-10-10T08:20:37;11.50;99.90
25320;DHT22;13256;49.012;8.610;2022-10-10T08:23:07;11.70;99.90
25320;DHT22;13256;49.012;8.610;2022-10-10T08:25:34;12.00;99.90
25320;DHT22;13256;49.012;8.610;2022-10-10T08:28:03;12.20;99.90
25320;DHT22;13256;49.012;8.610;2022-10-10T08:30:57;12.40;99.90
25320;DHT22;13256;49.012;8.610;2022-10-10T08:36:20;13.00;99.90
25320;DHT22;13256;49.012;8.610;2022-10-10T08:38:50;13.30;99.90
25320;DHT22;13256;49.012;8.610;2022-10-10T08:50:22;14.40;99.90
25320;DHT22;13256;49.012;8.610;2022-10-10T09:01:38;15.50;99.90
25320;DHT22;13256;49.012;8.610;2022-10-10T09:04:25;15.80;99.90
25320;DHT22;13256;49.012;8.610;2022-10-10T09:07:13;16.10;99.90
25320;DHT22;13256;49.012;8.610;2022-10-10T09:29:35;18.00;99.90
25320;DHT22;13256;49.012;8.610;2022-10-10T09:35:25;18.40;99.90
25320;DHT22;13256;49.012;8.610;2022-10-10T09:40:58;18.30;99.90
25320;DHT22;13256;49.012;8.610;2022-10-10T09:46:37;18.60;99.90
25320;DHT22;13256;49.012;8.610;2022-10-10T09:49:08;18.90;99.90
25320;DHT22;13256;49.012;8.610;2022-10-10T09:51:38;19.30;99.90
25320;DHT22;13256;49.012;8.610;2022-10-10T09:54:06;19.60;99.90
25320;DHT22;13256;49.012;8.610;2022-10-10T09:56:52;19.90;99.90
25320;DHT22;13256;49.012;8.610;2022-10-10T09:59:56;20.10;99.90
25320;DHT22;13256;49.012;8.610;2022-10-10T10:02:40;20.40;99.90
25320;DHT22;13256;49.012;8.610;2022-10-10T10:05:24;20.70;99.90
25320;DHT22;13256;49.012;8.610;2022-10-10T10:07:51;21.00;99.90
25320;DHT22;13256;49.012;8.610;2022-10-10T10:10:24;21.30;99.90
25320;DHT22;13256;49.012;8.610;2022-10-10T10:13:12;21.30;99.90
25320;DHT22;13256;49.012;8.610;2022-10-10T10:15:47;21.40;99.90
25320;DHT22;13256;49.012;8.610;2022-10-10T10:20:47;21.80;99.90
25320;DHT22;13256;49.012;8.610;2022-10-10T10:23:33;21.70;99.90
25320;DHT22;13256;49.012;8.610;2022-10-10T10:26:04;21.80;99.90
25320;DHT22;13256;49.012;8.610;2022-10-10T10:28:51;22.00;99.90
25320;DHT22;13256;49.012;8.610;2022-10-10T10:31:48;22.00;99.90
25320;DHT22;13256;49.012;8.610;2022-10-10T11:01:15;22.30;99.90
25320;DHT22;13256;49.012;8.610;2022-10-10T11:07:24;22.70;99.90
25320;DHT22;13256;49.012;8.610;2022-10-10T11:16:21;23.20;99.90
25320;DHT22;13256;49.012;8.610;2022-10-10T11:27:41;23.80;99.90
25320;DHT22;13256;49.012;8.610;2022-10-10T11:30:34;24.00;99.90
25320;DHT22;13256;49.012;8.610;2022-10-10T11:36:29;24.00;99.90
25320;DHT22;13256;49.012;8.610;2022-10-10T11:44:52;23.70;99.90
25320;DHT22;13256;49.012;8.610;2022-10-10T11:47:42;23.60;99.90
25320;DHT22;13256;49.012;8.610;2022-10-10T11:50:26;23.40;99.90
25320;DHT22;13256;49.012;8.610;2022-10-10T11:53:19;23.10;99.90
25320;DHT22;13256;49.012;8.610;2022-10-10T11:59:54;22.80;99.90
25320;DHT22;13256;49.012;8.610;2022-10-10T12:02:48;22.90;99.90
25320;DHT22;13256;49.012;8.610;2022-10-10T12:11:00;23.30;99.90
25320;DHT22;13256;49.012;8.610;2022-10-10T12:14:06;23.30;99.90
25320;DHT22;13256;49.012;8.610;2022-10-10T12:16:30;23.30;99.90
25320;DHT22;13256;49.012;8.610;2022-10-10T12:19:04;23.40;99.90
25320;DHT22;13256;49.012;8.610;2022-10-10T12:24:25;23.60;99.90
25320;DHT22;13256;49.012;8.610;2022-10-10T12:50:37;25.10;98.20
25320;DHT22;13256;49.012;8.610;2022-10-10T12:53:19;25.10;98.70
25320;DHT22;13256;49.012;8.610;2022-10-10T12:55:58;25.00;96.30
25320;DHT22;13256;49.012;8.610;2022-10-10T13:07:51;25.20;98.70
25320;DHT22;13256;49.012;8.610;2022-10-10T13:10:26;25.40;98.80
25320;DHT22;13256;49.012;8.610;2022-10-10T13:13:17;25.50;99.10
25320;DHT22;13256;49.012;8.610;2022-10-10T13:16:14;25.50;95.70
25320;DHT22;13256;49.012;8.610;2022-10-10T13:19:00;25.30;96.60
25320;DHT22;13256;49.012;8.610;2022-10-10T13:21:36;25.20;96.80
25320;DHT22;13256;49.012;8.610;2022-10-10T13:24:04;25.20;95.60
25320;DHT22;13256;49.012;8.610;2022-10-10T13:26:49;25.00;95.30
25320;DHT22;13256;49.012;8.610;2022-10-10T13:29:34;25.00;96.60
25320;DHT22;13256;49.012;8.610;2022-10-10T13:32:13;25.20;96.50
25320;DHT22;13256;49.012;8.610;2022-10-10T13:34:55;25.30;96.60
25320;DHT22;13256;49.012;8.610;2022-10-10T13:37:25;25.30;95.70
25320;DHT22;13256;49.012;8.610;2022-10-10T13:39:55;25.20;95.50
25320;DHT22;13256;49.012;8.610;2022-10-10T13:42:35;25.20;96.20
25320;DHT22;13256;49.012;8.610;2022-10-10T13:45:29;25.10;97.00
25320;DHT22;13256;49.012;8.610;2022-10-10T14:03:57;25.70;95.90
25320;DHT22;13256;49.012;8.610;2022-10-10T14:06:28;25.70;94.60
25320;DHT22;13256;49.012;8.610;2022-10-10T14:09:06;25.60;95.50
25320;DHT22;13256;49.012;8.610;2022-10-10T14:11:35;25.60;94.30
25320;DHT22;13256;49.012;8.610;2022-10-10T14:14:20;25.60;93.30
25320;DHT22;13256;49.012;8.610;2022-10-10T14:17:01;25.30;93.00
25320;DHT22;13256;49.012;8.610;2022-10-10T14:19:34;25.20;93.20
25320;DHT22;13256;49.012;8.610;2022-10-10T14:22:03;24.90;93.80
25320;DHT22;13256;49.012;8.610;2022-10-10T14:24:32;24.60;94.60
25320;DHT22;13256;49.012;8.610;2022-10-10T14:27:26;24.60;96.00
25320;DHT22;13256;49.012;8.610;2022-10-10T14:30:19;24.60;96.10
25320;DHT22;13256;49.012;8.610;2022-10-10T14:32:48;24.80;97.00
25320;DHT22;13256;49.012;8.610;2022-10-10T14:44:42;25.60;93.90
25320;DHT22;13256;49.012;8.610;2022-10-10T14:47:43;25.60;95.60
25320;DHT22;13256;49.012;8.610;2022-10-10T14:50:22;25.70;96.20
25320;DHT22;13256;49.012;8.610;2022-10-10T14:52:50;25.80;95.60
25320;DHT22;13256;49.012;8.610;2022-10-10T14:55:19;25.80;94.50
25320;DHT22;13256;49.012;8.610;2022-10-10T14:58:17;25.80;94.80
25320;DHT22;13256;49.012;8.610;2022-10-10T15:00:44;25.40;94.60
25320;DHT22;13256;49.012;8.610;2022-10-10T15:03:11;25.30;95.60
25320;DHT22;13256;49.012;8.610;2022-10-10T15:05:43;25.10;95.50
25320;DHT22;13256;49.012;8.610;2022-10-10T15:08:12;24.90;95.90
25320;DHT22;13256;49.012;8.610;2022-10-10T15:10:41;24.80;96.80
25320;DHT22;13256;49.012;8.610;2022-10-10T15:13:12;24.80;96.70
25320;DHT22;13256;49.012;8.610;2022-10-10T15:15:43;24.70;97.20
25320;DHT22;13256;49.012;8.610;2022-10-10T15:18:39;24.50;97.40
25320;DHT22;13256;49.012;8.610;2022-10-10T15:21:20;24.40;98.00
25320;DHT22;13256;49.012;8.610;2022-10-10T15:23:53;24.30;98.00
25320;DHT22;13256;49.012;8.610;2022-10-10T15:26:21;24.20;98.40
25320;DHT22;13256;49.012;8.610;2022-10-10T15:28:47;24.10;98.70
25320;DHT22;13256;49.012;8.610;2022-10-10T15:31:17;24.10;99.00
25320;DHT22;13256;49.012;8.610;2022-10-10T15:33:45;24.00;99.10
25320;DHT22;13256;49.012;8.610;2022-10-10T15:36:12;23.80;99.50
25320;DHT22;13256;49.012;8.610;2022-10-10T15:38:47;23.80;99.70
25320;DHT22;13256;49.012;8.610;2022-10-10T15:41:14;23.70;99.90
25320;DHT22;13256;49.012;8.610;2022-10-10T15:43:47;23.60;99.90
25320;DHT22;13256;49.012;8.610;2022-10-10T15:46:25;23.60;99.90
25320;DHT22;13256;49.012;8.610;2022-10-10T15:49:00;23.50;99.90
25320;DHT22;13256;49.012;8.610;2022-10-10T15:51:27;23.40;99.90
25320;DHT22;13256;49.012;8.610;2022-10-10T15:53:58;23.20;99.90
25320;DHT22;13256;49.012;8.610;2022-10-10T15:56:40;23.10;99.90
25320;DHT22;13256;49.012;8.610;2022-10-10T15:59:08;23.10;99.90
25320;DHT22;13256;49.012;8.610;2022-10-10T16:01:36;23.00;99.90
25320;DHT22;13256;49.012;8.610;2022-10-10T16:04:03;23.00;99.90
25320;DHT22;13256;49.012;8.610;2022-10-10T16:06:31;22.90;99.90
25320;DHT22;13256;49.012;8.610;2022-10-10T16:09:01;22.90;99.90
25320;DHT22;13256;49.012;8.610;2022-10-10T16:11:48;22.80;99.90
25320;DHT22;13256;49.012;8.610;2022-10-10T16:14:14;22.70;99.90
25320;DHT22;13256;49.012;8.610;2022-10-10T16:16:43;22.60;99.90
25320;DHT22;13256;49.012;8.610;2022-10-10T16:19:10;22.50;99.90
25320;DHT22;13256;49.012;8.610;2022-10-10T16:21:40;22.30;99.90
25320;DHT22;13256;49.012;8.610;2022-10-10T16:24:08;22.00;99.90
25320;DHT22;13256;49.012;8.610;2022-10-10T16:26:36;21.80;99.90
25320;DHT22;13256;49.012;8.610;2022-10-10T16:29:05;21.60;99.90
25320;DHT22;13256;49.012;8.610;2022-10-10T16:31:32;21.40;99.90
25320;DHT22;13256;49.012;8.610;2022-10-10T16:34:05;21.20;99.90
25320;DHT22;13256;49.012;8.610;2022-10-10T16:36:34;20.90;99.90
25320;DHT22;13256;49.012;8.610;2022-10-10T16:39:02;20.80;99.90
25320;DHT22;13256;49.012;8.610;2022-10-10T16:41:32;20.70;99.90
25320;DHT22;13256;49.012;8.610;2022-10-10T16:44:15;20.50;99.90
25320;DHT22;13256;49.012;8.610;2022-10-10T16:46:44;20.40;99.90
25320;DHT22;13256;49.012;8.610;2022-10-10T16:49:13;20.10;99.90
25320;DHT22;13256;49.012;8.610;2022-10-10T16:51:46;20.00;99.90
25320;DHT22;13256;49.012;8.610;2022-10-10T16:54:13;19.80;99.90
25320;DHT22;13256;49.012;8.610;2022-10-10T16:56:41;19.60;99.90
25320;DHT22;13256;49.012;8.610;2022-10-10T16:59:14;19.50;99.90
25320;DHT22;13256;49.012;8.610;2022-10-10T17:01:43;19.50;99.90
25320;DHT22;13256;49.012;8.610;2022-10-10T17:04:09;19.40;99.90
25320;DHT22;13256;49.012;8.610;2022-10-10T17:06:36;19.30;99.90
25320;DHT22;13256;49.012;8.610;2022-10-10T17:09:07;19.20;99.90
25320;DHT22;13256;49.012;8.610;2022-10-10T17:11:39;19.10;99.90
25320;DHT22;13256;49.012;8.610;2022-10-10T17:14:06;19.00;99.90
25320;DHT22;13256;49.012;8.610;2022-10-10T17:16:33;19.00;99.90
25320;DHT22;13256;49.012;8.610;2022-10-10T17:19:19;18.80;99.90
25320;DHT22;13256;49.012;8.610;2022-10-10T17:21:46;18.70;99.90
25320;DHT22;13256;49.012;8.610;2022-10-10T17:24:18;18.60;99.90
25320;DHT22;13256;49.012;8.610;2022-10-10T17:26:47;18.50;99.90
25320;DHT22;13256;49.012;8.610;2022-10-10T17:29:16;18.30;99.90
25320;DHT22;13256;49.012;8.610;2022-10-10T17:31:47;18.20;99.90
25320;DHT22;13256;49.012;8.610;2022-10-10T17:34:14;18.20;99.90
25320;DHT22;13256;49.012;8.610;2022-10-10T17:36:46;18.10;99.90
25320;DHT22;13256;49.012;8.610;2022-10-10T17:39:14;18.00;99.90
25320;DHT22;13256;49.012;8.610;2022-10-10T17:41:44;18.00;99.90
25320;DHT22;13256;49.012;8.610;2022-10-10T17:44:15;18.00;99.90
25320;DHT22;13256;49.012;8.610;2022-10-10T17:46:44;17.90;99.90
25320;DHT22;13256;49.012;8.610;2022-10-10T17:49:16;17.80;99.90
25320;DHT22;13256;49.012;8.610;2022-10-10T17:51:46;17.70;99.90
25320;DHT22;13256;49.012;8.610;2022-10-10T17:54:13;17.70;99.90
25320;DHT22;13256;49.012;8.610;2022-10-10T17:56:40;17.70;99.90
25320;DHT22;13256;49.012;8.610;2022-10-10T17:59:11;17.60;99.90
25320;DHT22;13256;49.012;8.610;2022-10-10T18:01:41;17.60;99.90
25320;DHT22;13256;49.012;8.610;2022-10-10T18:04:13;17.60;99.90
25320;DHT22;13256;49.012;8.610;2022-10-10T18:06:41;17.60;99.90
25320;DHT22;13256;49.012;8.610;2022-10-10T18:09:12;17.60;99.90
25320;DHT22;13256;49.012;8.610;2022-10-10T18:11:40;17.60;99.90
25320;DHT22;13256;49.012;8.610;2022-10-10T18:14:11;17.60;99.90
25320;DHT22;13256;49.012;8.610;2022-10-10T18:16:38;17.60;99.90
25320;DHT22;13256;49.012;8.610;2022-10-10T18:19:08;17.70;99.90
25320;DHT22;13256;49.012;8.610;2022-10-10T18:21:35;17.70;99.90
25320;DHT22;13256;49.012;8.610;2022-10-10T18:24:02;17.60;99.90
25320;DHT22;13256;49.012;8.610;2022-10-10T18:44:12;17.60;99.90
25320;DHT22;13256;49.012;8.610;2022-10-10T18:46:42;17.60;99.90
25320;DHT22;13256;49.012;8.610;2022-10-10T18:49:10;17.60;99.90
25320;DHT22;13256;49.012;8.610;2022-10-10T18:51:42;17.60;99.90
25320;DHT22;13256;49.012;8.610;2022-10-10T18:54:14;17.50;99.90
25320;DHT22;13256;49.012;8.610;2022-10-10T18:56:45;17.60;99.90
25320;DHT22;13256;49.012;8.610;2022-10-10T18:59:16;17.50;99.90
25320;DHT22;13256;49.012;8.610;2022-10-10T19:01:48;17.50;99.90
25320;DHT22;13256;49.012;8.610;2022-10-10T19:04:23;17.50;99.90
25320;DHT22;13256;49.012;8.610;2022-10-10T19:06:52;17.50;99.90
25320;DHT22;13256;49.012;8.610;2022-10-10T19:09:49;17.40;99.90
25320;DHT22;13256;49.012;8.610;2022-10-10T19:12:18;17.40;99.90
25320;DHT22;13256;49.012;8.610;2022-10-10T19:14:47;17.40;99.90
25320;DHT22;13256;49.012;8.610;2022-10-10T19:17:17;17.40;99.90
25320;DHT22;13256;49.012;8.610;2022-10-10T19:19:48;17.40;99.90
25320;DHT22;13256;49.012;8.610;2022-10-10T19:22:21;17.40;99.90
25320;DHT22;13256;49.012;8.610;2022-10-10T19:24:50;17.30;99.90
25320;DHT22;13256;49.012;8.610;2022-10-10T19:27:19;17.30;99.90
25320;DHT22;13256;49.012;8.610;2022-10-10T19:29:48;17.30;99.90
25320;DHT22;13256;49.012;8.610;2022-10-10T19:32:17;17.20;99.90
25320;DHT22;13256;49.012;8.610;2022-10-10T19:34:45;17.20;99.90
25320;DHT22;13256;49.012;8.610;2022-10-10T19:37:13;17.20;99.90
25320;DHT22;13256;49.012;8.610;2022-10-10T19:39:40;17.10;99.90
25320;DHT22;13256;49.012;8.610;2022-10-10T19:42:08;17.10;99.90
25320;DHT22;13256;49.012;8.610;2022-10-10T19:44:37;17.00;99.90
25320;DHT22;13256;49.012;8.610;2022-10-10T19:47:04;17.00;99.90
25320;DHT22;13256;49.012;8.610;2022-10-10T19:49:35;16.90;99.90
25320;DHT22;13256;49.012;8.610;2022-10-10T19:52:02;16.90;99.90
25320;DHT22;13256;49.012;8.610;2022-10-10T19:54:29;16.90;99.90
25320;DHT22;13256;49.012;8.610;2022-10-10T19:57:00;16.90;99.90
25320;DHT22;13256;49.012;8.610;2022-10-10T19:59:30;16.90;99.90
25320;DHT22;13256;49.012;8.610;2022-10-10T20:01:57;16.90;99.90
25320;DHT22;13256;49.012;8.610;2022-10-10T20:04:24;17.00;99.90
25320;DHT22;13256;49.012;8.610;2022-10-10T20:06:59;17.00;99.90
25320;DHT22;13256;49.012;8.610;2022-10-10T20:09:26;17.00;99.90
25320;DHT22;13256;49.012;8.610;2022-10-10T20:11:56;17.00;99.90
25320;DHT22;13256;49.012;8.610;2022-10-10T20:14:22;17.00;99.90
25320;DHT22;13256;49.012;8.610;2022-10-10T20:16:49;17.10;99.90
25320;DHT22;13256;49.012;8.610;2022-10-10T20:19:16;17.10;99.90
25320;DHT22;13256;49.012;8.610;2022-10-10T20:21:43;17.20;99.90
25320;DHT22;13256;49.012;8.610;2022-10-10T20:24:12;17.20;99.90
25320;DHT22;13256;49.012;8.610;2022-10-10T20:26:39;17.20;99.90
25320;DHT22;13256;49.012;8.610;2022-10-10T20:29:08;17.20;99.90
25320;DHT22;13256;49.012;8.610;2022-10-10T20:31:36;17.20;99.90
25320;DHT22;13256;49.012;8.610;2022-10-10T20:34:32;17.30;99.90
25320;DHT22;13256;49.012;8.610;2022-10-10T20:37:11;17.30;99.90
25320;DHT22;13256;49.012;8.610;2022-10-10T20:39:38;17.30;99.90
25320;DHT22;13256;49.012;8.610;2022-10-10T20:42:04;17.30;99.90
25320;DHT22;13256;49.012;8.610;2022-10-10T20:44:37;17.40;99.90
25320;DHT22;13256;49.012;8.610;2022-10-10T20:47:09;17.30;99.90
25320;DHT22;13256;49.012;8.610;2022-10-10T20:50:00;17.30;99.90
25320;DHT22;13256;49.012;8.610;2022-10-10T20:52:31;17.30;99.90
25320;DHT22;13256;49.012;8.610;2022-10-10T20:55:05;17.30;99.90
25320;DHT22;13256;49.012;8.610;2022-10-10T20:57:34;17.30;99.90
25320;DHT22;13256;49.012;8.610;2022-10-10T21:00:11;17.30;99.90
25320;DHT22;13256;49.012;8.610;2022-10-10T21:02:38;17.30;99.90
25320;DHT22;13256;49.012;8.610;2022-10-10T21:05:05;17.30;99.90
25320;DHT22;13256;49.012;8.610;2022-10-10T21:07:36;17.30;99.90
25320;DHT22;13256;49.012;8.610;2022-10-10T21:10:07;17.30;99.90
25320;DHT22;13256;49.012;8.610;2022-10-10T21:12:34;17.30;99.90
25320;DHT22;13256;49.012;8.610;2022-10-10T21:15:01;17.30;99.90